Data for 12/15/2008

Time Sea-Level Adjusted Pressure Absolute Pressure Temperature Relative Humidity Dew Point   
(mb) (inHg) (mb) (inHg) (C) (F) (%) (C) (F)
00:05 1018 30.06 848 25.04 -25 -13 75 -28.2 -18.8
00:10 1018 30.06 848 25.04 -25 -13 75 -28.3 -18.9
00:15 1018 30.06 848 25.04 -24.9 -12.9 74 -28.3 -18.9
00:20 1018 30.06 848 25.04 -24.9 -12.9 74 -28.3 -19
00:25 1018 30.06 848 25.04 -25 -13.1 74 -28.5 -19.3
00:30 1018 30.06 848 25.04 -25.2 -13.3 75 -28.5 -19.2
00:35 1018 30.06 848 25.04 -25.2 -13.3 74 -28.5 -19.3
00:40 1018 30.06 848 25.04 -25.2 -13.3 74 -28.5 -19.3
00:45 1018 30.06 848 25.04 -25.1 -13.2 74 -28.5 -19.2
00:50 1018 30.06 848 25.04 -25.1 -13.2 75 -28.4 -19.1
00:55 1018 30.06 848 25.04 -25 -13 74 -28.4 -19.1
01:00 1018 30.06 848 25.04 -25 -13 74 -28.4 -19
01:05 1018 30.06 848 25.04 -25 -13 74 -28.4 -19.1
01:10 1018 30.06 848 25.04 -25.1 -13.2 75 -28.4 -19.1
01:15 1018 30.06 848 25.04 -25.1 -13.2 74 -28.5 -19.3
01:20 1018 30.06 848 25.04 -25 -13.1 74 -28.4 -19.2
01:25 1018 30.06 848 25.04 -25 -13 73 -28.6 -19.4
01:30 1018 30.06 848 25.04 -25.1 -13.1 74 -28.5 -19.3
01:35 1018 30.06 848 25.04 -25.1 -13.2 73 -28.6 -19.5
01:40 1018 30.06 848 25.04 -25.2 -13.3 73 -28.7 -19.6
01:45 1018 30.06 848 25.04 -25.3 -13.5 74 -28.6 -19.5
01:50 1018 30.06 848 25.04 -25.3 -13.5 75 -28.5 -19.4
01:55 1018 30.06 848 25.04 -25.2 -13.3 74 -28.5 -19.3
02:00 1019 30.09 848 25.04 -25.2 -13.3 74 -28.5 -19.3
02:05 1019 30.09 848 25.04 -25.2 -13.4 74 -28.6 -19.5
02:10 1019 30.09 848 25.04 -25.3 -13.5 74 -28.7 -19.7
02:15 1019 30.09 848 25.04 -25.4 -13.6 74 -28.8 -19.8
02:20 1019 30.09 848 25.04 -25.4 -13.8 74 -28.9 -20
02:25 1019 30.09 848 25.04 -25.6 -14 74 -28.9 -20.1
02:30 1019 30.09 848 25.04 -25.7 -14.2 74 -29 -20.2
02:35 1019 30.09 848 25.04 -25.6 -14.1 73 -29.1 -20.4
02:40 1019 30.09 848 25.04 -25.6 -14.1 75 -28.9 -20
02:45 1019 30.09 848 25.04 -25.6 -14.1 74 -29 -20.2
02:50 1019 30.09 848 25.04 -25.7 -14.2 74 -29 -20.2
02:55 1019 30.09 848 25.04 -25.8 -14.4 75 -29 -20.3
03:00 1019 30.09 848 25.04 -25.8 -14.5 75 -29.1 -20.4
03:05 1019 30.09 848 25.04 -25.8 -14.5 74 -29.2 -20.5
03:10 1019 30.09 848 25.04 -26 -14.7 75 -29.2 -20.5
03:15 1019 30.09 848 25.04 -26.1 -15 76 -29.2 -20.6
03:20 1019 30.09 848 25.04 -26.2 -15.1 76 -29.2 -20.6
03:25 1019 30.09 848 25.04 -26.1 -14.9 76 -29.1 -20.4
03:30 1019 30.09 848 25.04 -26 -14.8 75 -29.2 -20.6
03:35 1019 30.09 848 25.04 -26 -14.8 76 -29 -20.2
03:40 1019 30.09 848 25.04 -25.9 -14.5 76 -28.9 -19.9
03:45 1019 30.09 848 25.04 -25.9 -14.5 76 -29 -20.1
03:50 1019 30.09 848 25.04 -26 -14.7 76 -29.1 -20.3
03:55 1019 30.09 848 25.04 -26.1 -14.9 76 -29.1 -20.5
04:00 1019 30.09 848 25.04 -26.1 -14.9 77 -29 -20.3
04:05 1019 30.09 848 25.04 -26 -14.7 74 -29.4 -20.9
04:10 1019 30.09 848 25.04 -26.2 -15.1 75 -29.4 -20.9
04:15 1019 30.09 848 25.04 -26.2 -15.1 76 -29.1 -20.5
04:20 1019 30.09 848 25.04 -26 -14.7 74 -29.3 -20.7
04:25 1019 30.09 848 25.04 -25.9 -14.7 75 -29.1 -20.3
04:30 1019 30.09 848 25.04 -25.8 -14.5 75 -29 -20.3
04:35 1019 30.09 848 25.04 -25.7 -14.3 75 -28.9 -20
04:40 1019 30.09 848 25.04 -25.6 -14 75 -28.8 -19.8
04:45 1019 30.09 848 25.04 -25.5 -14 74 -29 -20.1
04:50 1019 30.09 848 25.04 -25.5 -14 73 -29.1 -20.3
04:55 1019 30.09 848 25.04 -25.6 -14 74 -29 -20.1
05:00 1019 30.09 848 25.04 -25.5 -13.9 73 -29.1 -20.3
05:05 1019 30.09 848 25.04 -25.6 -14 74 -28.9 -20
05:10 1019 30.09 848 25.04 -25.6 -14.1 74 -29 -20.2
05:15 1019 30.09 848 25.04 -25.7 -14.2 74 -29.1 -20.3
05:20 1019 30.09 848 25.04 -25.8 -14.4 74 -29.2 -20.6
05:25 1019 30.09 848 25.04 -25.9 -14.6 75 -29.1 -20.5
05:30 1019 30.09 848 25.04 -25.9 -14.6 75 -29.2 -20.5
05:35 1019 30.09 848 25.04 -26 -14.8 75 -29.2 -20.5
05:40 1019 30.09 848 25.04 -25.9 -14.7 75 -29.2 -20.5
05:45 1019 30.09 848 25.04 -26.1 -15 75 -29.3 -20.8
05:50 1019 30.09 848 25.04 -26.1 -15 75 -29.3 -20.8
05:55 1019 30.09 848 25.04 -26.2 -15.2 75 -29.4 -20.9
06:00 1019 30.09 848 25.04 -26.3 -15.3 75 -29.5 -21
06:05 1019 30.09 848 25.04 -26.4 -15.4 76 -29.4 -21
06:10 1019 30.09 848 25.04 -26.4 -15.5 76 -29.4 -21
06:15 1019 30.09 848 25.04 -26.4 -15.6 76 -29.5 -21
06:20 1019 30.09 848 25.04 -26.5 -15.8 75 -29.7 -21.5
06:25 1019 30.09 848 25.04 -26.8 -16.2 77 -29.7 -21.5
06:30 1019 30.09 848 25.04 -26.7 -16 76 -29.7 -21.5
06:35 1019 30.09 849 25.07 -26.7 -16.1 76 -29.7 -21.5
06:40 1019 30.09 849 25.07 -26.7 -16.1 76 -29.8 -21.6
06:45 1019 30.09 849 25.07 -26.8 -16.2 76 -29.8 -21.6
06:50 1019 30.09 849 25.07 -26.8 -16.3 76 -29.9 -21.8
06:55 1019 30.09 849 25.07 -27 -16.7 76 -30 -22.1
07:00 1019 30.09 849 25.07 -27.2 -17 76 -30.2 -22.4
07:05 1020 30.12 849 25.07 -27.5 -17.4 76 -30.5 -22.9
07:10 1020 30.12 849 25.07 -27.5 -17.6 75 -30.7 -23.3
07:15 1020 30.12 849 25.07 -27.7 -17.8 74 -30.9 -23.6
07:20 1020 30.12 849 25.07 -27.6 -17.7 74 -30.9 -23.7
07:25 1020 30.12 849 25.07 -27.8 -18 74 -31 -23.8
07:30 1020 30.12 849 25.07 -27.7 -17.8 74 -31.1 -23.9
07:35 1020 30.12 849 25.07 -27.5 -17.4 74 -30.8 -23.5
07:40 1020 30.12 849 25.07 -27.5 -17.4 72 -31 -23.8
07:45 1020 30.12 849 25.07 -27.5 -17.5 74 -30.8 -23.5
07:50 1020 30.12 849 25.07 -27.4 -17.3 73 -30.8 -23.5
07:55 1020 30.12 849 25.07 -27.5 -17.4 73 -30.9 -23.7
08:00 1020 30.12 849 25.07 -27.5 -17.5 73 -31 -23.7
08:05 1020 30.12 849 25.07 -27.5 -17.5 73 -31 -23.8
08:10 1020 30.12 849 25.07 -27.6 -17.6 75 -30.8 -23.4
08:15 1020 30.12 849 25.07 -27.4 -17.4 74 -30.7 -23.3
08:20 1020 30.12 849 25.07 -27.4 -17.3 73 -30.8 -23.5
08:25 1020 30.12 849 25.07 -27.8 -18 74 -31.1 -23.9
08:30 1020 30.12 849 25.07 -27.8 -18 75 -30.9 -23.7
08:35 1020 30.12 849 25.07 -27.6 -17.6 74 -30.9 -23.6
08:40 1020 30.12 850 25.1 -27.4 -17.3 73 -30.9 -23.6
08:45 1020 30.12 850 25.1 -27.3 -17.1 73 -30.8 -23.4
08:50 1020 30.12 850 25.1 -27.1 -16.7 73 -30.5 -23
08:55 1020 30.12 850 25.1 -26.7 -16.1 72 -30.4 -22.8
09:00 1020 30.12 850 25.1 -26.4 -15.6 72 -30.1 -22.1
09:05 1021 30.15 850 25.1 -26.1 -14.9 70 -30.1 -22.2
09:10 1021 30.15 850 25.1 -25.9 -14.7 70 -29.9 -21.9
09:15 1021 30.15 850 25.1 -25.8 -14.5 68 -30.1 -22.2
09:20 1021 30.15 850 25.1 -25.4 -13.7 67 -29.9 -21.8
09:25 1021 30.15 850 25.1 -25.3 -13.5 68 -29.5 -21.1
09:30 1021 30.15 850 25.1 -25 -13 67 -29.5 -21.2
09:35 1021 30.15 850 25.1 -24.6 -12.3 64 -29.6 -21.3
09:40 1021 30.15 850 25.1 -24.5 -12.2 65 -29.4 -20.8
09:45 1021 30.15 850 25.1 -24.6 -12.2 64 -29.6 -21.2
09:50 1021 30.15 850 25.1 -24.4 -11.9 64 -29.3 -20.7
09:55 1021 30.15 850 25.1 -24 -11.2 65 -28.9 -20
10:00 1021 30.15 850 25.1 -24 -11.2 66 -28.7 -19.7
10:05 1021 30.15 850 25.1 -23.8 -10.9 64 -28.8 -19.9
10:10 1021 30.15 850 25.1 -24 -11.2 64 -29 -20.1
10:15 1021 30.15 850 25.1 -24.2 -11.5 64 -29.2 -20.5
10:20 1021 30.15 850 25.1 -23.7 -10.6 63 -28.8 -19.9
10:25 1021 30.15 850 25.1 -23.3 -10 61 -28.8 -19.9
10:30 1021 30.15 850 25.1 -23.4 -10.1 63 -28.6 -19.4
10:35 1021 30.15 850 25.1 -23.4 -10.1 63 -28.7 -19.6
10:40 1021 30.15 850 25.1 -23.3 -9.9 62 -28.7 -19.7
10:45 1021 30.15 850 25.1 -23.3 -9.9 63 -28.4 -19.2
10:50 1021 30.15 850 25.1 -23.2 -9.7 62 -28.6 -19.5
10:55 1021 30.15 850 25.1 -23.1 -9.5 63 -28.3 -18.9
11:00 1021 30.15 850 25.1 -22.8 -9 61 -28.3 -18.9
11:05 1021 30.15 850 25.1 -23.1 -9.5 63 -28.3 -18.9
11:10 1021 30.15 850 25.1 -23.5 -10.4 63 -28.7 -19.7
11:15 1020 30.12 850 25.1 -23.7 -10.7 65 -28.5 -19.4
11:20 1020 30.12 850 25.1 -23 -9.3 63 -28.2 -18.8
11:25 1020 30.12 849 25.07 -22.8 -9.1 64 -27.9 -18.2
11:30 1020 30.12 849 25.07 -23.7 -10.7 65 -28.5 -19.3
11:35 1020 30.12 849 25.07 -24.3 -11.7 68 -28.6 -19.5
11:40 1020 30.12 849 25.07 -24.6 -12.2 72 -28.3 -18.9
11:45 1020 30.12 849 25.07 -23.7 -10.7 66 -28.4 -19.2
11:50 1020 30.12 849 25.07 -23.3 -10 65 -28.1 -18.7
11:55 1020 30.12 849 25.07 -23 -9.5 64 -28.1 -18.5
12:00 1020 30.12 849 25.07 -22.5 -8.5 60 -28.3 -18.9
12:05 1020 30.12 849 25.07 -22.3 -8.1 60 -28.1 -18.5
12:10 1020 30.12 849 25.07 -22.3 -8.1 60 -28 -18.3
12:15 1020 30.12 849 25.07 -22.1 -7.9 59 -28.1 -18.6
12:20 1020 30.12 849 25.07 -22 -7.6 58 -28.2 -18.8
12:25 1020 30.12 849 25.07 -22.5 -8.5 57 -28.8 -19.8
12:30 1019 30.09 849 25.07 -23.7 -10.6 64 -28.6 -19.6
12:35 1019 30.09 848 25.04 -23.2 -9.8 59 -29.1 -20.4
12:40 1019 30.09 848 25.04 -24.1 -11.4 64 -29.2 -20.5
12:45 1019 30.09 848 25.04 -22.9 -9.3 58 -29.1 -20.3
12:50 1019 30.09 848 25.04 -22.7 -8.8 59 -28.7 -19.6
12:55 1019 30.09 848 25.04 -22.2 -8 58 -28.4 -19.2
13:00 1019 30.09 848 25.04 -22.5 -8.5 61 -28.2 -18.7
13:05 1018 30.06 848 25.04 -22.5 -8.5 59 -28.5 -19.3
13:10 1018 30.06 848 25.04 -22.4 -8.4 57 -28.9 -20
13:15 1018 30.06 848 25.04 -22.6 -8.6 59 -28.5 -19.2
13:20 1018 30.06 848 25.04 -21.8 -7.2 59 -27.9 -18.2
13:25 1018 30.06 847 25.01 -21.5 -6.6 57 -27.8 -18
13:30 1018 30.06 847 25.01 -21.8 -7.2 57 -28.1 -18.5
13:35 1018 30.06 847 25.01 -21.5 -6.6 56 -28 -18.5
13:40 1018 30.06 847 25.01 -21.6 -6.8 58 -27.8 -18.1
13:45 1018 30.06 847 25.01 -21.6 -6.9 56 -28.1 -18.6
13:50 1018 30.06 847 25.01 -21.5 -6.7 56 -28.1 -18.5
13:55 1018 30.06 847 25.01 -22 -7.6 57 -28.4 -19.1
14:00 1018 30.06 847 25.01 -21.9 -7.4 56 -28.5 -19.3
14:05 1018 30.06 847 25.01 -22 -7.6 56 -28.5 -19.4
14:10 1018 30.06 847 25.01 -22.1 -7.8 56 -28.6 -19.5
14:15 1018 30.06 847 25.01 -22.2 -8 56 -28.7 -19.7
14:20 1018 30.06 847 25.01 -22.1 -7.7 56 -28.6 -19.5
14:25 1018 30.06 847 25.01 -21.8 -7.2 56 -28.3 -18.9
14:30 1018 30.06 847 25.01 -21.8 -7.3 56 -28.3 -19
14:35 1018 30.06 847 25.01 -22.5 -8.4 58 -28.7 -19.7
14:40 1018 30.06 847 25.01 -22.5 -8.6 57 -28.9 -20
14:45 1018 30.06 847 25.01 -22.5 -8.5 57 -28.8 -19.9
14:50 1018 30.06 847 25.01 -22.5 -8.5 56 -29 -20.2
14:55 1018 30.06 847 25.01 -22.9 -9.2 57 -29.2 -20.6
15:00 1018 30.06 847 25.01 -23.5 -10.2 60 -29.3 -20.7
15:05 1018 30.06 847 25.01 -23.2 -9.8 60 -29 -20.1
15:10 1018 30.06 847 25.01 -23.8 -10.8 63 -28.9 -20.1
15:15 1017 30.03 847 25.01 -23.6 -10.4 62 -28.9 -20.1
15:20 1017 30.03 847 25.01 -23.6 -10.4 62 -29 -20.3
15:25 1017 30.03 847 25.01 -23.6 -10.4 64 -28.7 -19.6
15:30 1017 30.03 846 24.98 -23.4 -10.2 61 -29 -20.3
15:35 1017 30.03 846 24.98 -23.8 -10.8 61 -29.3 -20.7
15:40 1017 30.03 846 24.98 -23.9 -11 62 -29.3 -20.8
15:45 1017 30.03 846 24.98 -24.4 -12 64 -29.4 -20.9
15:50 1017 30.03 846 24.98 -24.5 -12.1 66 -29.2 -20.6
15:55 1017 30.03 846 24.98 -24.5 -12.1 65 -29.3 -20.8
16:00 1017 30.03 846 24.98 -24.6 -12.3 66 -29.3 -20.8
16:05 1017 30.03 846 24.98 -24.5 -12.1 66 -29.1 -20.4
16:10 1017 30.03 846 24.98 -24.5 -12.1 66 -29.1 -20.4
16:15 1017 30.03 846 24.98 -24.5 -12.1 68 -28.8 -19.9
16:20 1017 30.03 846 24.98 -24.3 -11.7 67 -28.8 -19.8
16:25 1017 30.03 846 24.98 -24.1 -11.3 68 -28.5 -19.3
16:30 1017 30.03 846 24.98 -24.1 -11.4 66 -28.7 -19.7
16:35 1017 30.03 846 24.98 -24.2 -11.6 68 -28.6 -19.5
16:40 1017 30.03 846 24.98 -24.2 -11.6 68 -28.5 -19.2
16:45 1017 30.03 846 24.98 -24.3 -11.7 67 -28.8 -19.9
16:50 1017 30.03 846 24.98 -24.4 -11.9 68 -28.7 -19.7
16:55 1017 30.03 846 24.98 -24.5 -12 69 -28.6 -19.5
17:00 1017 30.03 846 24.98 -24.3 -11.8 68 -28.7 -19.6
17:05 1017 30.03 846 24.98 -24.4 -12 69 -28.6 -19.4
17:10 1017 30.03 846 24.98 -24.5 -12.2 70 -28.6 -19.4
17:15 1017 30.03 846 24.98 -24.7 -12.5 69 -28.9 -20
17:20 1017 30.03 846 24.98 -25 -13.1 71 -28.8 -19.9
17:25 1017 30.03 846 24.98 -25 -12.9 71 -28.9 -19.9
17:30 1016 30 846 24.98 -24.8 -12.6 69 -28.9 -20
17:35 1016 30 846 24.98 -24.9 -12.8 70 -29 -20.1
17:40 1016 30 846 24.98 -24.8 -12.7 70 -28.9 -20
17:45 1016 30 845 24.95 -24.7 -12.5 69 -28.8 -19.8
17:50 1016 30 845 24.95 -24.6 -12.4 69 -28.8 -19.8
17:55 1016 30 845 24.95 -24.6 -12.4 68 -29 -20.3
18:00 1016 30 845 24.95 -24.7 -12.5 68 -29 -20.2
18:05 1016 30 845 24.95 -24.8 -12.7 68 -29.2 -20.5
18:10 1016 30 845 24.95 -25.2 -13.4 68 -29.6 -21.3
18:15 1016 30 845 24.95 -25.4 -13.8 70 -29.4 -21
18:20 1016 30 845 24.95 -25.2 -13.3 73 -28.7 -19.7
18:25 1016 30 845 24.95 -25.1 -13.1 71 -28.9 -20
18:30 1016 30 845 24.95 -25.2 -13.3 73 -28.7 -19.7
18:35 1016 30 845 24.95 -25.1 -13.2 73 -28.7 -19.6
18:40 1016 30 845 24.95 -25.1 -13.1 74 -28.4 -19.1
18:45 1016 30 845 24.95 -24.8 -12.7 70 -28.9 -20
18:50 1016 30 845 24.95 -24.8 -12.7 70 -28.9 -20
18:55 1016 30 845 24.95 -24.8 -12.7 70 -28.8 -19.9
19:00 1016 30 845 24.95 -24.7 -12.5 72 -28.4 -19.2
19:05 1016 30 845 24.95 -25 -12.9 72 -28.7 -19.6
19:10 1016 30 845 24.95 -25 -13 73 -28.5 -19.3
19:15 1016 30 845 24.95 -25 -13 74 -28.4 -19.1
19:20 1016 30 845 24.95 -24.9 -12.8 72 -28.6 -19.5
19:25 1016 30 845 24.95 -24.9 -12.7 73 -28.4 -19.1
19:30 1016 30 845 24.95 -24.8 -12.6 72 -28.5 -19.4
19:35 1016 30 845 24.95 -24.8 -12.6 72 -28.4 -19.2
19:40 1016 30 845 24.95 -24.6 -12.2 73 -28.1 -18.6
19:45 1016 30 845 24.95 -24.6 -12.3 74 -28 -18.4
19:50 1016 30 845 24.95 -24.8 -12.7 74 -28.3 -18.9
19:55 1016 30 845 24.95 -24.9 -12.7 75 -28.1 -18.6
20:00 1015 29.97 845 24.95 -24.9 -12.9 73 -28.5 -19.4
20:05 1015 29.97 845 24.95 -25.1 -13.1 75 -28.3 -18.9
20:10 1015 29.97 845 24.95 -24.8 -12.7 74 -28.2 -18.8
20:15 1015 29.97 845 24.95 -24.7 -12.5 73 -28.3 -18.9
20:20 1015 29.97 845 24.95 -24.6 -12.2 72 -28.3 -19
20:25 1015 29.97 844 24.92 -24.9 -12.7 74 -28.3 -18.9
20:30 1015 29.97 844 24.92 -24.8 -12.7 75 -28.1 -18.6
20:35 1015 29.97 844 24.92 -24.8 -12.6 73 -28.3 -18.9
20:40 1015 29.97 844 24.92 -25 -13 74 -28.4 -19.1
20:45 1015 29.97 844 24.92 -25.1 -13.1 74 -28.5 -19.2
20:50 1015 29.97 844 24.92 -25 -13 76 -28.1 -18.6
20:55 1015 29.97 844 24.92 -24.8 -12.6 73 -28.3 -18.9
21:00 1015 29.97 844 24.92 -24.9 -12.8 74 -28.2 -18.8
21:05 1015 29.97 844 24.92 -24.7 -12.5 74 -28.1 -18.5
21:10 1015 29.97 844 24.92 -24.4 -11.9 72 -28.1 -18.6
21:15 1015 29.97 844 24.92 -24.4 -12 68 -28.7 -19.7
21:20 1015 29.97 844 24.92 -24.6 -12.3 68 -29 -20.1
21:25 1015 29.97 844 24.92 -24.7 -12.4 67 -29.2 -20.5
21:30 1015 29.97 844 24.92 -24.5 -12.2 67 -29 -20.3
21:35 1015 29.97 844 24.92 -24.5 -12.1 67 -29 -20.1
21:40 1015 29.97 844 24.92 -24.5 -12.1 67 -29 -20.1
21:45 1015 29.97 844 24.92 -24.6 -12.2 70 -28.6 -19.5
21:50 1015 29.97 844 24.92 -24.9 -12.7 72 -28.6 -19.4
21:55 1015 29.97 844 24.92 -24.6 -12.2 71 -28.5 -19.3
22:00 1014 29.94 844 24.92 -24.7 -12.5 72 -28.5 -19.2
22:05 1014 29.94 844 24.92 -25 -12.9 72 -28.6 -19.6
22:10 1014 29.94 844 24.92 -25.4 -13.7 73 -28.8 -19.9
22:15 1014 29.94 844 24.92 -25.4 -13.8 73 -29 -20.2
22:20 1014 29.94 844 24.92 -25.6 -14.1 74 -29 -20.2
22:25 1014 29.94 843 24.89 -25.5 -14 74 -29 -20.1
22:30 1014 29.94 843 24.89 -25.5 -13.9 74 -28.8 -19.9
22:35 1014 29.94 843 24.89 -25.5 -13.8 74 -28.8 -19.9
22:40 1014 29.94 843 24.89 -25.5 -13.8 75 -28.6 -19.5
22:45 1014 29.94 843 24.89 -25.2 -13.4 73 -28.7 -19.6
22:50 1014 29.94 843 24.89 -25.2 -13.3 74 -28.6 -19.4
22:55 1014 29.94 843 24.89 -25 -13 74 -28.4 -19
23:00 1014 29.94 843 24.89 -25 -13 76 -28.1 -18.6
23:05 1014 29.94 843 24.89 -25.1 -13.2 76 -28.3 -18.9
23:10 1014 29.94 843 24.89 -25.1 -13.1 75 -28.3 -18.9
23:15 1014 29.94 843 24.89 -25.1 -13.2 75 -28.4 -19.1
23:20 1014 29.94 843 24.89 -25.2 -13.3 75 -28.4 -19
23:25 1014 29.94 843 24.89 -25.3 -13.5 76 -28.4 -19.1
23:30 1014 29.94 843 24.89 -25.2 -13.4 76 -28.4 -19.1
23:35 1014 29.94 843 24.89 -25.4 -13.6 75 -28.5 -19.4
23:40 1014 29.94 843 24.89 -25.4 -13.7 76 -28.5 -19.3
23:45 1014 29.94 843 24.89 -25.5 -13.9 76 -28.5 -19.3
23:50 1014 29.94 843 24.89 -25.5 -13.9 77 -28.5 -19.3
23:55 1014 29.94 843 24.89 -25.5 -13.8 76 -28.5 -19.3
24:00 1014 29.94 843 24.89 -25.4 -13.7 76 -28.5 -19.2